Time;durP1;ratioP1;P1;durP2;ratioP2;P2;SDS_P1;SDS_P2;PMS_P1;PMS_P2;Temp;Humidity;BMP_temperature;BMP_pressure;BME280_temperature;BME280_humidity;BME280_pressure;Samples;Min_cycle;Max_cycle;Signal;HPM_P1;HPM_P2
2021/08/18 00:00:50;;;;;;;1.80;0.75;;;;;;;12.59;93.45;101850.13;5047592;28;20020;-84
2021/08/18 00:03:16;;;;;;;1.67;0.80;;;;;;;12.49;93.47;101825.97;5084736;28;20020;-85
2021/08/18 00:05:43;;;;;;;2.05;0.60;;;;;;;12.42;93.78;101808.75;5066665;28;20058;-84
2021/08/18 00:08:10;;;;;;;5.50;1.00;;;;;;;12.57;93.28;101834.13;5066922;28;20036;-84
2021/08/18 00:10:36;;;;;;;2.28;0.98;;;;;;;12.49;93.38;101839.44;5066560;28;20028;-85
2021/08/18 00:13:03;;;;;;;1.85;0.70;;;;;;;12.30;93.59;101818.97;5062227;28;20146;-85
2021/08/18 00:15:30;;;;;;;2.83;0.80;;;;;;;12.38;93.67;101828.97;5050804;28;20040;-85
2021/08/18 00:17:59;;;;;;;1.98;0.60;;;;;;;12.30;93.67;101813.56;5067810;28;20035;-84
2021/08/18 00:20:29;;;;;;;1.42;0.77;;;;;;;12.42;93.80;101833.88;5066427;28;20073;-85
2021/08/18 00:22:55;;;;;;;2.08;0.90;;;;;;;12.40;93.62;101825.09;5065886;28;20028;-85
2021/08/18 00:25:21;;;;;;;1.65;0.70;;;;;;;12.28;93.51;101800.28;5051574;28;20589;-85
2021/08/18 00:27:47;;;;;;;2.75;0.60;;;;;;;12.28;93.86;101799.44;5086981;28;20102;-85
2021/08/18 00:30:13;;;;;;;3.33;0.77;;;;;;;12.34;93.47;101806.88;5068550;28;20057;-84
2021/08/18 00:32:38;;;;;;;2.45;1.00;;;;;;;12.25;93.73;101794.34;5061824;28;20039;-84
2021/08/18 00:35:05;;;;;;;2.83;0.98;;;;;;;12.37;93.60;101813.78;5061361;28;20115;-84
2021/08/18 00:37:30;;;;;;;2.50;0.70;;;;;;;12.42;93.43;101819.56;5053538;28;20020;-84
2021/08/18 00:39:56;;;;;;;2.00;0.70;;;;;;;12.38;93.66;101801.97;5049577;28;20275;-84
2021/08/18 00:42:22;;;;;;;2.20;0.70;;;;;;;12.40;93.53;101814.31;5064414;28;20900;-85
2021/08/18 00:44:47;;;;;;;1.80;0.82;;;;;;;12.37;93.94;101816.50;5064226;28;20048;-85
2021/08/18 00:47:13;;;;;;;3.92;0.77;;;;;;;12.36;94.26;101820.19;5060434;28;20088;-84
2021/08/18 00:49:39;;;;;;;2.35;0.60;;;;;;;12.31;94.14;101801.81;5063600;28;20499;-84
2021/08/18 00:52:05;;;;;;;1.65;0.68;;;;;;;12.31;94.13;101802.66;5064185;28;20086;-84
2021/08/18 00:54:33;;;;;;;1.55;0.68;;;;;;;12.36;93.88;101804.88;5052770;28;20034;-84
2021/08/18 00:57:02;;;;;;;1.77;0.60;;;;;;;12.29;93.62;101793.03;5071116;28;20064;-84
2021/08/18 00:59:29;;;;;;;1.30;0.50;;;;;;;12.25;94.25;101781.72;5076595;28;20107;-85
2021/08/18 01:01:55;;;;;;;1.85;0.60;;;;;;;12.28;93.59;101794.03;5083311;28;20035;-84
2021/08/18 01:04:20;;;;;;;1.67;0.55;;;;;;;12.12;93.52;101767.84;5055801;28;20036;-84
2021/08/18 01:06:46;;;;;;;2.65;0.70;;;;;;;12.21;93.36;101782.19;5072395;28;20053;-84
2021/08/18 01:09:15;;;;;;;1.48;0.70;;;;;;;12.18;93.40;101783.38;5068981;28;20035;-85
2021/08/18 01:11:42;;;;;;;1.67;0.60;;;;;;;12.06;93.36;101763.06;5059796;28;20024;-84
2021/08/18 01:14:09;;;;;;;1.63;0.85;;;;;;;12.11;93.29;101776.91;5049993;28;20029;-84
2021/08/18 01:16:38;;;;;;;2.70;0.60;;;;;;;12.09;93.53;101774.41;5065476;28;20028;-82
2021/08/18 01:19:05;;;;;;;5.40;1.00;;;;;;;12.05;93.72;101773.03;5064094;28;20081;-84
2021/08/18 01:21:31;;;;;;;4.28;0.85;;;;;;;12.02;93.52;101767.13;5085919;28;20028;-84
2021/08/18 01:23:57;;;;;;;2.03;0.80;;;;;;;12.09;94.05;101773.53;5071738;28;20107;-85
2021/08/18 01:26:23;;;;;;;0.82;0.50;;;;;;;11.90;94.20;101744.13;5087270;28;20028;-83
2021/08/18 01:28:50;;;;;;;3.47;0.90;;;;;;;12.06;93.85;101763.91;5054942;28;20055;-85
2021/08/18 01:31:19;;;;;;;1.25;0.60;;;;;;;12.07;94.09;101765.63;5069097;28;20035;-85
2021/08/18 01:33:45;;;;;;;3.70;0.63;;;;;;;12.15;93.95;101772.91;5067836;28;20047;-85
2021/08/18 01:36:11;;;;;;;1.88;0.63;;;;;;;12.11;94.13;101763.44;5050047;28;20127;-86
2021/08/18 01:38:37;;;;;;;2.30;0.80;;;;;;;12.14;94.07;101765.81;5072438;28;20758;-85
2021/08/18 01:41:02;;;;;;;3.38;0.75;;;;;;;11.94;94.31;101738.28;5065103;28;20043;-84
2021/08/18 01:43:28;;;;;;;3.95;0.98;;;;;;;12.07;94.49;101762.94;5082065;28;20023;-84
2021/08/18 01:45:54;;;;;;;3.58;0.70;;;;;;;12.05;94.55;101758.69;5059303;28;20043;-85
2021/08/18 01:48:26;;;;;;;0.98;0.50;;;;;;;12.09;94.46;101758.22;5083293;28;20012;-84
2021/08/18 01:50:53;;;;;;;1.42;0.50;;;;;;;12.05;94.55;101745.22;5066455;28;20089;-86
2021/08/18 01:53:24;;;;;;;1.63;0.70;;;;;;;12.16;94.46;101753.03;5070940;28;20036;-86
2021/08/18 01:55:50;;;;;;;2.50;0.63;;;;;;;12.07;94.02;101744.06;5085358;28;20032;-85
2021/08/18 01:58:15;;;;;;;3.03;0.80;;;;;;;12.11;93.98;101747.25;5069162;28;20035;-84
2021/08/18 02:00:42;;;;;;;2.15;0.70;;;;;;;12.15;94.33;101754.03;5064435;28;20036;-84
2021/08/18 02:03:07;;;;;;;3.80;0.90;;;;;;;12.09;94.64;101747.44;5069736;28;20088;-84
2021/08/18 02:05:34;;;;;;;1.40;0.95;;;;;;;11.97;94.26;101732.56;5054574;28;20038;-85
2021/08/18 02:08:00;;;;;;;1.30;0.60;;;;;;;11.97;94.50;101716.38;5047799;28;20044;-84
2021/08/18 02:10:27;;;;;;;3.05;0.90;;;;;;;12.00;94.28;101728.69;5066077;28;20049;-84
2021/08/18 02:12:54;;;;;;;3.58;1.02;;;;;;;11.90;94.56;101717.19;5066030;28;20031;-86
2021/08/18 02:15:23;;;;;;;2.22;0.80;;;;;;;12.01;94.74;101741.16;5071681;28;20032;-86
2021/08/18 02:17:49;;;;;;;1.50;0.80;;;;;;;11.96;94.82;101716.53;5070819;28;20048;-88
2021/08/18 02:20:18;;;;;;;0.88;0.60;;;;;;;11.98;94.64;101723.44;5080754;28;20141;-86
2021/08/18 02:22:44;;;;;;;3.65;0.77;;;;;;;12.02;94.88;101734.78;5090003;28;20047;-86
2021/08/18 02:25:10;;;;;;;1.77;1.08;;;;;;;11.96;94.72;101725.47;5085191;28;21797;-85
2021/08/18 02:27:35;;;;;;;2.15;0.85;;;;;;;11.78;94.90;101689.66;5081321;28;20036;-87
2021/08/18 02:30:02;;;;;;;3.25;0.73;;;;;;;12.06;94.96;101730.72;5082525;28;20073;-87
2021/08/18 02:32:27;;;;;;;1.60;0.70;;;;;;;12.02;95.03;101721.28;5096664;28;20048;-88
2021/08/18 02:34:53;;;;;;;3.42;0.80;;;;;;;12.05;95.06;101720.97;5069853;28;20444;-87
2021/08/18 02:37:19;;;;;;;3.13;0.95;;;;;;;12.04;94.92;101716.56;5086118;28;20062;-86
2021/08/18 02:39:44;;;;;;;2.63;0.65;;;;;;;12.03;95.07;101718.41;5078691;28;20106;-86
2021/08/18 02:42:10;;;;;;;1.70;0.90;;;;;;;12.05;95.41;101711.03;5098449;28;20027;-85
2021/08/18 02:44:36;;;;;;;1.95;0.80;;;;;;;12.11;95.33;101706.81;5079159;28;20035;-85
2021/08/18 02:47:01;;;;;;;2.05;0.80;;;;;;;12.09;95.01;101703.44;5096661;28;20055;-87
2021/08/18 02:49:27;;;;;;;1.55;0.82;;;;;;;11.99;94.83;101691.97;5065022;28;20032;-88
2021/08/18 02:51:53;;;;;;;3.22;1.17;;;;;;;12.07;95.24;101694.69;5077473;28;20039;-86
2021/08/18 02:54:18;;;;;;;2.42;0.80;;;;;;;12.04;95.48;101695.00;5094276;28;20028;-87
2021/08/18 02:56:44;;;;;;;3.95;0.90;;;;;;;12.09;95.39;101695.34;5083711;28;20394;-85
2021/08/18 02:59:11;;;;;;;1.20;0.47;;;;;;;12.12;95.73;101692.38;5095312;28;20020;-86
2021/08/18 03:01:39;;;;;;;2.75;0.70;;;;;;;12.13;95.63;101691.34;5094394;28;20753;-85
2021/08/18 03:04:05;;;;;;;1.67;0.70;;;;;;;11.99;95.20;101667.72;5047170;28;20414;-86
2021/08/18 03:06:31;;;;;;;1.30;0.50;;;;;;;11.94;95.26;101660.09;5077004;28;20156;-85
2021/08/18 03:08:56;;;;;;;2.33;0.50;;;;;;;12.16;95.34;101695.56;5071044;28;20035;-85
2021/08/18 03:11:22;;;;;;;0.90;0.57;;;;;;;12.01;95.56;101666.53;5054137;28;20084;-85
2021/08/18 03:13:47;;;;;;;1.45;0.70;;;;;;;12.15;95.62;101694.72;5070907;28;20024;-85
2021/08/18 03:16:13;;;;;;;0.63;0.38;;;;;;;12.20;95.20;101699.59;5080378;28;20028;-86
2021/08/18 03:18:39;;;;;;;2.88;0.60;;;;;;;12.18;95.62;101694.41;5083345;28;20028;-85
2021/08/18 03:21:04;;;;;;;1.77;0.60;;;;;;;12.18;94.96;101689.00;5052882;28;20035;-86
2021/08/18 03:23:30;;;;;;;0.85;0.40;;;;;;;12.15;95.34;101681.25;5063726;28;20032;-85
2021/08/18 03:25:56;;;;;;;0.50;0.40;;;;;;;12.17;94.80;101678.38;5068947;28;20072;-85
2021/08/18 03:28:21;;;;;;;1.17;0.50;;;;;;;12.17;95.29;101683.75;5049420;28;20028;-86
2021/08/18 03:30:47;;;;;;;1.00;0.50;;;;;;;12.01;94.75;101657.59;5063088;28;20020;-86
2021/08/18 03:33:12;;;;;;;2.08;0.60;;;;;;;12.00;95.16;101664.84;5067275;28;20024;-85
2021/08/18 03:35:38;;;;;;;4.47;0.68;;;;;;;12.10;94.83;101672.81;5070092;28;20024;-85
2021/08/18 03:38:04;;;;;;;2.80;0.50;;;;;;;11.97;95.20;101651.69;5070634;28;20057;-85
2021/08/18 03:40:30;;;;;;;1.10;0.50;;;;;;;12.08;95.50;101672.13;5070625;28;20027;-86
2021/08/18 03:42:55;;;;;;;1.02;0.50;;;;;;;12.08;95.30;101672.94;5083691;28;20035;-85
2021/08/18 03:45:21;;;;;;;1.95;0.50;;;;;;;12.01;95.39;101658.47;5063903;28;20072;-85
2021/08/18 03:47:47;;;;;;;1.90;0.50;;;;;;;12.01;95.38;101652.19;5065469;28;20032;-85
2021/08/18 03:50:12;;;;;;;2.05;0.60;;;;;;;11.97;95.56;101650.84;5067396;28;20020;-86
2021/08/18 03:52:42;;;;;;;0.50;0.40;;;;;;;12.01;95.61;101660.28;5084034;28;20468;-85
2021/08/18 03:55:10;;;;;;;0.43;0.40;;;;;;;12.03;95.55;101656.41;5050750;28;20063;-85
2021/08/18 03:57:35;;;;;;;1.08;0.40;;;;;;;12.14;95.78;101674.16;5058608;28;20100;-85
2021/08/18 04:00:01;;;;;;;1.35;0.57;;;;;;;12.05;95.93;101656.28;5052109;28;20034;-85
2021/08/18 04:02:27;;;;;;;2.30;0.60;;;;;;;11.93;95.60;101636.84;5066076;28;20031;-86
2021/08/18 04:04:53;;;;;;;0.30;0.30;;;;;;;12.14;95.72;101667.91;5081223;28;20029;-85
2021/08/18 04:07:18;;;;;;;1.23;0.50;;;;;;;11.97;95.95;101646.31;5065808;28;20193;-86
2021/08/18 04:09:44;;;;;;;2.13;0.60;;;;;;;12.08;96.11;101661.34;5065911;28;20432;-86
2021/08/18 04:12:10;;;;;;;2.22;0.50;;;;;;;12.07;96.02;101659.66;5083433;28;20064;-85
2021/08/18 04:14:35;;;;;;;0.63;0.40;;;;;;;12.10;95.97;101662.84;5071847;28;20028;-86
2021/08/18 04:17:01;;;;;;;3.30;0.60;;;;;;;12.08;95.80;101664.03;5071609;28;20029;-86
2021/08/18 04:19:27;;;;;;;1.15;0.55;;;;;;;12.07;96.14;101665.88;5068333;28;20040;-85
2021/08/18 04:21:52;;;;;;;1.52;0.60;;;;;;;11.84;96.31;101630.56;5073295;28;20057;-86
2021/08/18 04:24:18;;;;;;;0.80;0.50;;;;;;;11.98;96.53;101649.84;5049804;28;20144;-86
2021/08/18 04:26:43;;;;;;;1.10;0.68;;;;;;;11.97;96.17;101645.47;5082375;28;20021;-85
2021/08/18 04:29:09;;;;;;;0.75;0.60;;;;;;;11.93;96.60;101634.16;5065055;28;20020;-85
2021/08/18 04:31:35;;;;;;;0.98;0.50;;;;;;;12.03;96.32;101645.63;5068656;28;20449;-86
2021/08/18 04:34:00;;;;;;;0.35;0.35;;;;;;;12.06;96.25;101650.69;5083391;28;20024;-84
2021/08/18 04:36:26;;;;;;;3.65;0.80;;;;;;;12.03;96.60;101642.09;5080864;28;20044;-85
2021/08/18 04:38:52;;;;;;;0.77;0.32;;;;;;;12.04;96.46;101647.34;5051255;28;20049;-86
2021/08/18 04:41:17;;;;;;;0.40;0.40;;;;;;;11.87;96.17;101608.69;5070817;28;20108;-85
2021/08/18 04:43:43;;;;;;;0.30;0.30;;;;;;;12.02;96.13;101643.13;5067872;28;20030;-85
2021/08/18 04:46:09;;;;;;;0.50;0.40;;;;;;;12.00;96.26;101639.75;5070605;28;20035;-86
2021/08/18 04:48:35;;;;;;;0.90;0.30;;;;;;;11.96;96.34;101638.38;5061662;28;20940;-85
2021/08/18 04:51:02;;;;;;;0.93;0.35;;;;;;;11.94;96.04;101630.47;5067901;28;20129;-85
2021/08/18 04:53:28;;;;;;;0.32;0.32;;;;;;;12.01;96.44;101638.72;5050898;28;20516;-85
2021/08/18 04:55:54;;;;;;;1.00;0.40;;;;;;;11.97;96.09;101627.44;5049852;28;20028;-85
2021/08/18 04:58:19;;;;;;;0.30;0.30;;;;;;;11.98;95.86;101628.28;5050634;28;20039;-85
2021/08/18 05:00:45;;;;;;;1.08;0.30;;;;;;;11.94;95.96;101618.84;5086909;28;20028;-85
2021/08/18 05:03:14;;;;;;;2.30;0.60;;;;;;;12.08;96.16;101637.91;5054467;28;20088;-86
2021/08/18 05:05:41;;;;;;;1.13;0.60;;;;;;;11.92;96.06;101612.78;5083190;28;20042;-85
2021/08/18 05:08:07;;;;;;;1.10;1.00;;;;;;;12.03;95.98;101634.03;5087710;28;20039;-85
2021/08/18 05:10:36;;;;;;;4.63;0.88;;;;;;;11.88;96.20;101610.41;5065488;28;20083;-85
2021/08/18 05:13:02;;;;;;;1.27;0.68;;;;;;;11.80;96.08;101598.69;5042687;28;20030;-85
2021/08/18 05:15:28;;;;;;;1.25;0.63;;;;;;;11.94;96.56;101616.16;5068778;28;20482;-85
2021/08/18 05:17:54;;;;;;;3.45;0.60;;;;;;;11.94;96.68;101624.25;5044975;28;20047;-85
2021/08/18 05:20:20;;;;;;;0.85;0.50;;;;;;;11.97;96.69;101635.53;5081298;28;20347;-85
2021/08/18 05:22:47;;;;;;;3.42;0.70;;;;;;;11.98;96.16;101626.41;5085634;28;20066;-86
2021/08/18 05:25:14;;;;;;;1.48;0.70;;;;;;;11.97;96.22;101629.28;5079433;28;20028;-85
2021/08/18 05:27:40;;;;;;;0.82;0.50;;;;;;;11.95;96.07;101632.13;5050021;28;20028;-86
2021/08/18 05:30:08;;;;;;;3.35;0.70;;;;;;;11.95;96.36;101636.69;5065489;28;20020;-84
2021/08/18 05:32:35;;;;;;;1.67;1.10;;;;;;;11.93;96.35;101627.91;5064039;28;20131;-86
2021/08/18 05:35:01;;;;;;;1.80;0.90;;;;;;;11.88;95.99;101621.19;5043633;28;20020;-85
2021/08/18 05:37:26;;;;;;;2.38;0.80;;;;;;;11.93;95.91;101622.53;5069569;28;20039;-85
2021/08/18 05:39:52;;;;;;;1.85;0.65;;;;;;;11.93;96.21;101614.44;5085513;28;20040;-85
2021/08/18 05:42:17;;;;;;;2.65;0.88;;;;;;;11.90;96.15;101612.06;5052962;28;20025;-86
2021/08/18 05:44:43;;;;;;;2.45;0.70;;;;;;;11.93;96.00;101619.84;5085181;28;20025;-85
2021/08/18 05:47:09;;;;;;;2.20;1.00;;;;;;;11.97;96.29;101629.28;5069797;28;20024;-85
2021/08/18 05:49:34;;;;;;;2.33;0.63;;;;;;;11.93;96.12;101620.66;5067773;28;20031;-86
2021/08/18 05:52:00;;;;;;;3.35;0.80;;;;;;;11.94;95.81;101616.16;5070911;28;20024;-86
2021/08/18 05:54:25;;;;;;;1.67;0.77;;;;;;;11.95;95.65;101626.75;5089740;28;20032;-85
2021/08/18 05:56:52;;;;;;;4.30;0.90;;;;;;;11.94;96.21;101613.47;5054548;28;20040;-86
2021/08/18 05:59:18;;;;;;;1.60;0.70;;;;;;;11.94;96.26;101614.28;5067087;28;20510;-85
2021/08/18 06:01:43;;;;;;;2.50;1.13;;;;;;;11.71;96.30;101576.28;5100421;28;20020;-88
2021/08/18 06:04:09;;;;;;;1.35;0.70;;;;;;;11.93;96.28;101599.09;5103642;28;20127;-87
2021/08/18 06:06:35;;;;;;;4.05;0.82;;;;;;;12.02;96.21;101605.38;5082729;28;20100;-87
2021/08/18 06:09:01;;;;;;;2.78;0.70;;;;;;;11.88;95.99;101590.66;5061798;28;20110;-85
2021/08/18 06:11:27;;;;;;;2.17;1.10;;;;;;;11.73;95.29;101566.19;5101756;28;20028;-86
2021/08/18 06:13:53;;;;;;;1.02;0.60;;;;;;;12.02;95.84;101608.91;5084512;28;20031;-85
2021/08/18 06:16:18;;;;;;;2.22;0.75;;;;;;;11.97;95.46;101595.09;5081704;28;20104;-86
2021/08/18 06:18:44;;;;;;;1.33;0.70;;;;;;;12.01;95.71;101609.06;5070277;28;20028;-85
2021/08/18 06:21:09;;;;;;;1.05;0.63;;;;;;;11.91;95.54;101582.28;5089627;28;20111;-87
2021/08/18 06:23:35;;;;;;;1.90;0.70;;;;;;;12.04;94.97;101600.66;5072458;28;20028;-85
2021/08/18 06:26:01;;;;;;;1.23;0.52;;;;;;;12.06;95.24;101596.78;5099129;28;20394;-88
2021/08/18 06:28:27;;;;;;;1.05;0.70;;;;;;;11.94;95.26;101564.94;5101091;28;20036;-85
2021/08/18 06:30:56;;;;;;;1.88;0.80;;;;;;;12.11;94.67;101596.28;5078633;28;20078;-86
2021/08/18 06:33:22;;;;;;;2.30;0.70;;;;;;;11.95;94.81;101561.22;5100707;28;20420;-86
2021/08/18 06:35:47;;;;;;;2.47;1.02;;;;;;;12.17;95.08;101579.47;5097617;28;20028;-85
2021/08/18 06:38:13;;;;;;;2.13;0.77;;;;;;;12.20;94.56;101592.63;5073471;28;20173;-84
2021/08/18 06:40:39;;;;;;;1.48;0.60;;;;;;;12.31;94.98;101597.69;5082843;28;20084;-84
2021/08/18 06:43:04;;;;;;;2.08;0.50;;;;;;;12.38;94.96;101599.72;5064315;28;20024;-85
2021/08/18 06:45:30;;;;;;;1.02;0.50;;;;;;;12.39;95.02;101586.06;5075640;28;20025;-83
2021/08/18 06:47:56;;;;;;;1.70;0.70;;;;;;;12.53;95.05;101598.88;5084389;28;20028;-85
2021/08/18 06:50:22;;;;;;;6.18;0.73;;;;;;;12.63;94.82;101595.19;5067637;28;20035;-83
2021/08/18 06:52:47;;;;;;;1.05;0.70;;;;;;;12.47;94.64;101569.06;5080749;28;20031;-84
2021/08/18 06:55:13;;;;;;;2.05;0.65;;;;;;;12.68;94.50;101595.53;5049907;28;20020;-84
2021/08/18 06:57:39;;;;;;;1.30;0.60;;;;;;;12.64;94.44;101580.66;5085091;28;20642;-85
2021/08/18 07:00:06;;;;;;;2.33;0.70;;;;;;;12.71;94.52;101590.63;5052186;28;20051;-86
2021/08/18 07:02:32;;;;;;;0.93;0.85;;;;;;;12.74;94.21;101584.88;5067703;28;20033;-86
2021/08/18 07:04:57;;;;;;;2.30;0.80;;;;;;;12.77;94.38;101584.53;5072276;28;20186;-86
2021/08/18 07:07:23;;;;;;;0.68;0.60;;;;;;;12.78;93.92;101588.09;5073098;28;20033;-86
2021/08/18 07:09:49;;;;;;;3.63;0.80;;;;;;;12.85;93.93;101585.53;5055886;28;20031;-86
2021/08/18 07:12:14;;;;;;;2.40;0.90;;;;;;;12.83;94.07;101583.00;5069184;28;20044;-85
2021/08/18 07:14:40;;;;;;;2.95;0.80;;;;;;;12.85;93.95;101582.84;5071075;28;20115;-86
2021/08/18 07:17:05;;;;;;;2.17;0.90;;;;;;;12.88;94.09;101591.44;5073077;28;20046;-86
2021/08/18 07:19:31;;;;;;;3.60;0.98;;;;;;;12.80;94.03;101567.16;5070641;28;20497;-85
2021/08/18 07:21:57;;;;;;;1.65;1.00;;;;;;;12.97;93.82;101584.19;5081928;28;20024;-84
2021/08/18 07:24:24;;;;;;;1.77;0.95;;;;;;;12.96;93.30;101563.59;5071505;28;20035;-84
2021/08/18 07:26:50;;;;;;;4.88;1.33;;;;;;;12.98;93.17;101559.69;5053437;28;20036;-86
2021/08/18 07:29:15;;;;;;;1.92;0.77;;;;;;;13.13;93.21;101577.91;5051138;28;20073;-86
2021/08/18 07:31:41;;;;;;;2.90;0.90;;;;;;;13.16;92.81;101582.97;5076479;28;20031;-86
2021/08/18 07:34:07;;;;;;;2.08;0.80;;;;;;;13.12;92.78;101578.91;5087271;28;20035;-87
2021/08/18 07:36:32;;;;;;;2.80;1.13;;;;;;;13.16;93.02;101583.81;5102163;28;20034;-85
2021/08/18 07:38:58;;;;;;;1.35;0.70;;;;;;;13.13;93.26;101564.41;5080684;28;20083;-85
2021/08/18 07:41:25;;;;;;;1.85;0.90;;;;;;;13.16;92.90;101559.50;5079829;28;20138;-87
2021/08/18 07:43:51;;;;;;;2.58;0.60;;;;;;;13.39;92.60;101597.44;5111446;28;20032;-87
2021/08/18 07:46:17;;;;;;;1.10;0.70;;;;;;;13.35;92.48;101579.06;5070178;28;20057;-85
2021/08/18 07:48:44;;;;;;;1.27;0.60;;;;;;;13.27;91.88;101554.78;5073760;28;20062;-85
2021/08/18 07:51:10;;;;;;;3.10;0.90;;;;;;;13.50;91.93;101581.88;5083755;28;20056;-87
2021/08/18 07:53:40;;;;;;;1.17;0.75;;;;;;;13.53;91.39;101579.66;5079407;28;20027;-85
2021/08/18 07:56:06;;;;;;;3.08;0.65;;;;;;;13.59;91.35;101557.34;5080792;28;20032;-86
2021/08/18 07:58:32;;;;;;;1.55;0.70;;;;;;;13.71;91.21;101570.47;5082317;28;20046;-85
2021/08/18 08:00:57;;;;;;;2.90;0.90;;;;;;;13.74;90.74;101576.34;5068571;28;20027;-86
2021/08/18 08:03:23;;;;;;;2.08;0.60;;;;;;;13.80;90.88;101582.91;5099165;28;20387;-85
2021/08/18 08:05:49;;;;;;;1.98;0.60;;;;;;;13.79;90.77;101570.44;5082175;28;20020;-86
2021/08/18 08:08:14;;;;;;;1.63;0.55;;;;;;;13.74;90.11;101575.53;5092010;28;20035;-88
2021/08/18 08:10:40;;;;;;;2.42;0.52;;;;;;;13.77;90.05;101580.56;5081611;28;20044;-87
2021/08/18 08:13:07;;;;;;;1.45;0.60;;;;;;;13.77;89.54;101575.16;5078256;28;20083;-87
2021/08/18 08:15:33;;;;;;;0.73;0.50;;;;;;;13.91;88.85;101566.28;5087413;28;20024;-87
2021/08/18 08:17:59;;;;;;;0.98;0.50;;;;;;;14.19;88.15;101579.31;5082368;28;20097;-88
2021/08/18 08:20:27;;;;;;;0.98;0.70;;;;;;;14.32;87.77;101563.31;5082069;28;20035;-85
2021/08/18 08:22:56;;;;;;;0.68;0.35;;;;;;;14.50;87.43;101566.56;5064351;28;20110;-85
2021/08/18 08:25:22;;;;;;;0.50;0.40;;;;;;;14.45;87.51;101552.72;5067977;28;20024;-84
2021/08/18 08:27:47;;;;;;;1.05;0.60;;;;;;;14.44;87.35;101552.91;5069762;28;20057;-85
2021/08/18 08:30:13;;;;;;;0.60;0.40;;;;;;;14.25;86.73;101549.66;5041307;28;20467;-86
2021/08/18 08:32:39;;;;;;;0.52;0.35;;;;;;;14.29;86.79;101561.00;5078134;28;20028;-86
2021/08/18 08:35:07;;;;;;;1.05;0.60;;;;;;;14.22;87.50;101555.44;5051960;28;20029;-86
2021/08/18 08:37:33;;;;;;;1.05;0.55;;;;;;;14.12;87.59;101529.66;5057268;28;20040;-85
2021/08/18 08:39:58;;;;;;;0.60;0.43;;;;;;;14.20;87.88;101543.94;5064110;28;20026;-85
2021/08/18 08:42:24;;;;;;;0.55;0.40;;;;;;;14.26;88.00;101553.22;5062927;28;20025;-86
2021/08/18 08:44:51;;;;;;;1.35;0.60;;;;;;;14.29;87.47;101523.13;5070077;28;20020;-86
2021/08/18 08:47:18;;;;;;;0.45;0.40;;;;;;;14.60;87.31;101544.66;5066218;28;20024;-85
2021/08/18 08:49:44;;;;;;;0.75;0.47;;;;;;;14.72;87.04;101537.78;5070717;28;20034;-85
2021/08/18 08:52:13;;;;;;;2.75;0.60;;;;;;;14.83;86.20;101547.34;5096472;28;20028;-88
2021/08/18 08:54:40;;;;;;;0.70;0.60;;;;;;;14.77;85.40;101542.66;5098465;28;20105;-86
2021/08/18 08:57:05;;;;;;;1.42;0.60;;;;;;;14.67;85.54;101525.84;5073736;28;20081;-85
2021/08/18 08:59:31;;;;;;;1.30;0.50;;;;;;;14.60;85.27;101530.31;5083946;28;20103;-85
2021/08/18 09:02:10;;;;;;;0.73;0.50;;;;;;;14.67;85.74;101547.50;5079303;28;20024;-86
2021/08/18 09:04:41;;;;;;;1.27;0.60;;;;;;;14.56;86.14;101545.25;5080807;28;20362;-86
2021/08/18 09:07:18;;;;;;;1.10;0.40;;;;;;;14.59;86.66;101551.13;5079225;28;20012;-86
2021/08/18 09:09:57;;;;;;;1.38;0.43;;;;;;;14.56;86.75;101554.19;5104733;28;20023;-86
2021/08/18 09:12:36;;;;;;;1.15;0.75;;;;;;;14.47;86.66;101542.56;5046137;28;20036;-86
2021/08/18 09:15:25;;;;;;;0.47;0.40;;;;;;;14.53;86.66;101541.03;5098567;28;20024;-85
2021/08/18 09:17:53;;;;;;;1.15;0.40;;;;;;;14.63;86.59;101541.63;5105999;28;20399;-86
2021/08/18 09:20:23;;;;;;;0.47;0.47;;;;;;;14.75;86.25;101533.88;5102112;28;20102;-87
2021/08/18 09:22:54;;;;;;;1.30;0.55;;;;;;;15.06;85.21;101535.59;5067177;28;20087;-85
2021/08/18 09:25:22;;;;;;;0.75;0.40;;;;;;;15.31;84.36;101530.72;5086683;28;20096;-86
2021/08/18 09:27:56;;;;;;;0.98;0.40;;;;;;;15.51;83.82;101531.84;5083483;28;20025;-86
2021/08/18 09:30:30;;;;;;;0.90;0.50;;;;;;;15.96;82.21;101529.88;5083283;28;20016;-88
2021/08/18 09:32:58;;;;;;;2.40;0.45;;;;;;;16.21;81.45;101533.03;5087320;28;20394;-87
2021/08/18 09:35:25;;;;;;;1.38;0.50;;;;;;;16.56;80.43;101524.16;5084815;28;20031;-88
2021/08/18 09:37:54;;;;;;;0.73;0.40;;;;;;;16.79;78.35;101516.63;5101930;28;20386;-88
2021/08/18 09:40:23;;;;;;;0.85;0.50;;;;;;;16.67;77.34;101520.88;5081234;28;20016;-85
2021/08/18 09:42:50;;;;;;;0.47;0.45;;;;;;;16.59;77.28;101521.91;5078145;28;20051;-85
2021/08/18 09:45:16;;;;;;;1.73;0.60;;;;;;;16.57;77.55;101526.69;5102755;28;20099;-87
2021/08/18 09:47:52;;;;;;;4.40;0.70;;;;;;;16.51;77.60;101527.44;5100936;28;20291;-86
2021/08/18 09:50:18;;;;;;;0.77;0.40;;;;;;;16.35;77.88;101519.59;5067792;28;20086;-87
2021/08/18 09:52:44;;;;;;;1.90;0.50;;;;;;;16.16;78.42;101526.50;5082343;28;20031;-88
2021/08/18 09:55:11;;;;;;;1.67;0.85;;;;;;;15.99;78.16;101521.34;5101273;28;20016;-87
2021/08/18 09:57:37;;;;;;;8.25;0.70;;;;;;;15.84;78.13;101517.84;5080376;28;20028;-89
2021/08/18 10:00:03;;;;;;;2.15;0.50;;;;;;;15.82;78.48;101520.75;5084761;28;20034;-86
2021/08/18 10:02:30;;;;;;;2.60;0.50;;;;;;;16.13;78.61;101513.34;5073380;28;20019;-86
2021/08/18 10:04:59;;;;;;;1.67;0.50;;;;;;;16.40;77.87;101498.13;5089456;28;20013;-85
2021/08/18 10:07:27;;;;;;;0.52;0.40;;;;;;;16.59;76.68;101485.75;5077924;28;20111;-85
2021/08/18 10:09:54;;;;;;;1.55;0.60;;;;;;;17.10;76.00;101505.34;5072494;28;20025;-85
2021/08/18 10:12:20;;;;;;;0.70;0.32;;;;;;;17.29;75.00;101500.19;5081199;28;20020;-86
2021/08/18 10:14:46;;;;;;;1.02;0.40;;;;;;;17.68;74.21;101498.69;5102403;28;20028;-86
2021/08/18 10:17:11;;;;;;;2.33;0.40;;;;;;;17.82;71.46;101500.41;5078995;28;20036;-86
2021/08/18 10:19:37;;;;;;;1.92;0.75;;;;;;;17.65;71.19;101502.66;5099414;28;20065;-86
2021/08/18 10:22:03;;;;;;;0.98;0.40;;;;;;;17.59;71.85;101520.59;5076732;28;20490;-88
2021/08/18 10:24:32;;;;;;;2.15;0.50;;;;;;;17.16;72.23;101503.69;5082998;28;20034;-88
2021/08/18 10:26:58;;;;;;;0.40;0.40;;;;;;;16.75;73.52;101501.75;5060791;28;20028;-86
2021/08/18 10:29:32;;;;;;;1.90;0.50;;;;;;;16.52;74.29;101504.72;5058329;28;20046;-87
2021/08/18 10:32:20;;;;;;;2.88;0.50;;;;;;;16.40;74.43;101517.13;5080168;28;20522;-88
2021/08/18 10:34:51;;;;;;;0.73;0.43;;;;;;;16.27;75.10;101509.69;5087859;28;20036;-87
2021/08/18 10:37:19;;;;;;;0.63;0.40;;;;;;;16.14;75.50;101512.28;5075769;28;20436;-85
2021/08/18 10:39:53;;;;;;;1.70;0.50;;;;;;;16.06;75.57;101486.13;5081132;28;20104;-86
2021/08/18 10:42:31;;;;;;;2.03;0.68;;;;;;;16.22;76.10;101495.88;5091802;28;20107;-86
2021/08/18 10:44:57;;;;;;;1.67;0.55;;;;;;;16.34;75.87;101496.22;5098538;28;20028;-86
2021/08/18 10:47:25;;;;;;;1.95;0.57;;;;;;;16.46;75.46;101495.47;5068604;28;20035;-86
2021/08/18 10:49:58;;;;;;;0.73;0.43;;;;;;;16.97;74.48;101499.81;5066911;28;20441;-86
2021/08/18 10:52:30;;;;;;;1.65;0.50;;;;;;;17.06;73.46;101492.34;5061973;28;20035;-85
2021/08/18 10:55:12;;;;;;;3.05;0.80;;;;;;;16.95;73.21;101480.16;5061656;28;20024;-86
2021/08/18 10:57:52;;;;;;;4.95;0.93;;;;;;;16.89;73.27;101483.69;5044995;28;20082;-85
2021/08/18 11:00:22;;;;;;;0.63;0.57;;;;;;;16.69;73.58;101489.78;5070688;28;20505;-85
2021/08/18 11:03:01;;;;;;;1.52;0.60;;;;;;;16.61;73.76;101491.81;5085305;28;20028;-85
2021/08/18 11:05:39;;;;;;;4.57;0.77;;;;;;;16.65;73.98;101491.22;5066965;28;20165;-84
2021/08/18 11:08:12;;;;;;;0.63;0.43;;;;;;;16.71;72.76;101493.16;5080062;28;20432;-83
2021/08/18 11:10:39;;;;;;;1.50;0.60;;;;;;;16.81;72.79;101498.25;5069200;28;20031;-85
2021/08/18 11:13:06;;;;;;;0.88;0.70;;;;;;;17.17;71.85;101488.22;5069421;28;20027;-86
2021/08/18 11:15:32;;;;;;;9.88;2.28;;;;;;;17.44;71.27;101484.59;5070782;28;20032;-86
2021/08/18 11:17:58;;;;;;;2.90;0.82;;;;;;;17.56;70.61;101468.50;5078535;28;20441;-85
2021/08/18 11:20:27;;;;;;;1.98;0.52;;;;;;;17.64;68.75;101479.19;5093898;28;20035;-86
2021/08/18 11:23:01;;;;;;;1.60;0.50;;;;;;;17.45;68.99;101469.94;5089791;28;20032;-87